sensor_id;sensor_type;location;lat;lon;timestamp;pressure;altitude;pressure_sealevel;temperature;humidity
64827;BME280;51265;53.972;12.286;2023-02-22T00:00:42;100901.88;;;2.72;100.00
64827;BME280;51265;53.972;12.286;2023-02-22T00:03:13;100894.91;;;2.53;100.00
64827;BME280;51265;53.972;12.286;2023-02-22T00:05:42;100893.63;;;2.55;100.00
64827;BME280;51265;53.972;12.286;2023-02-22T00:08:21;100891.72;;;2.56;100.00
64827;BME280;51265;53.972;12.286;2023-02-22T00:10:47;100893.13;;;2.46;100.00
64827;BME280;51265;53.972;12.286;2023-02-22T00:13:17;100894.09;;;2.40;100.00
64827;BME280;51265;53.972;12.286;2023-02-22T00:15:44;100886.41;;;2.37;100.00
64827;BME280;51265;53.972;12.286;2023-02-22T00:18:12;100896.34;;;2.32;100.00
64827;BME280;51265;53.972;12.286;2023-02-22T00:20:40;100888.31;;;2.25;100.00
64827;BME280;51265;53.972;12.286;2023-02-22T00:23:12;100899.06;;;2.20;100.00
64827;BME280;51265;53.972;12.286;2023-02-22T00:25:38;100897.06;;;2.15;100.00
64827;BME280;51265;53.972;12.286;2023-02-22T00:28:04;100894.25;;;2.10;100.00
64827;BME280;51265;53.972;12.286;2023-02-22T00:30:32;100893.16;;;2.11;100.00
64827;BME280;51265;53.972;12.286;2023-02-22T00:32:59;100893.41;;;2.10;100.00
64827;BME280;51265;53.972;12.286;2023-02-22T00:35:28;100888.91;;;2.04;100.00
64827;BME280;51265;53.972;12.286;2023-02-22T00:37:58;100890.31;;;1.94;100.00
64827;BME280;51265;53.972;12.286;2023-02-22T00:40:28;100893.84;;;1.83;100.00
64827;BME280;51265;53.972;12.286;2023-02-22T00:42:56;100892.44;;;1.69;100.00
64827;BME280;51265;53.972;12.286;2023-02-22T00:45:24;100883.78;;;1.60;100.00
64827;BME280;51265;53.972;12.286;2023-02-22T00:47:51;100886.22;;;1.38;100.00
64827;BME280;51265;53.972;12.286;2023-02-22T00:50:20;100879.78;;;1.21;100.00
64827;BME280;51265;53.972;12.286;2023-02-22T00:52:47;100890.63;;;1.21;100.00
64827;BME280;51265;53.972;12.286;2023-02-22T00:55:19;100896.84;;;1.40;100.00
64827;BME280;51265;53.972;12.286;2023-02-22T00:57:46;100896.59;;;1.41;100.00
64827;BME280;51265;53.972;12.286;2023-02-22T01:00:33;100895.69;;;1.47;100.00
64827;BME280;51265;53.972;12.286;2023-02-22T01:03:00;100891.16;;;1.41;100.00
64827;BME280;51265;53.972;12.286;2023-02-22T01:05:29;100900.72;;;1.32;100.00
64827;BME280;51265;53.972;12.286;2023-02-22T01:07:56;100889.44;;;1.17;100.00
64827;BME280;51265;53.972;12.286;2023-02-22T01:10:25;100896.25;;;1.08;100.00
64827;BME280;51265;53.972;12.286;2023-02-22T01:12:52;100884.50;;;0.95;100.00
64827;BME280;51265;53.972;12.286;2023-02-22T01:15:21;100886.72;;;0.87;100.00
64827;BME280;51265;53.972;12.286;2023-02-22T01:17:49;100888.47;;;0.81;100.00
64827;BME280;51265;53.972;12.286;2023-02-22T01:20:17;100896.22;;;0.78;100.00
64827;BME280;51265;53.972;12.286;2023-02-22T01:22:45;100893.13;;;0.74;100.00
64827;BME280;51265;53.972;12.286;2023-02-22T01:25:16;100894.63;;;0.70;100.00
64827;BME280;51265;53.972;12.286;2023-02-22T01:27:43;100889.06;;;0.65;100.00
64827;BME280;51265;53.972;12.286;2023-02-22T01:30:12;100896.81;;;0.61;100.00
64827;BME280;51265;53.972;12.286;2023-02-22T01:32:40;100888.09;;;0.59;100.00
64827;BME280;51265;53.972;12.286;2023-02-22T01:35:10;100897.88;;;0.60;100.00
64827;BME280;51265;53.972;12.286;2023-02-22T01:37:39;100899.78;;;0.60;100.00
64827;BME280;51265;53.972;12.286;2023-02-22T01:40:08;100893.75;;;0.58;100.00
64827;BME280;51265;53.972;12.286;2023-02-22T01:42:35;100896.44;;;0.58;100.00
64827;BME280;51265;53.972;12.286;2023-02-22T01:45:36;100895.41;;;0.59;100.00
64827;BME280;51265;53.972;12.286;2023-02-22T01:50:50;100901.88;;;0.58;100.00
64827;BME280;51265;53.972;12.286;2023-02-22T01:53:22;100899.78;;;0.60;100.00
64827;BME280;51265;53.972;12.286;2023-02-22T01:55:50;100905.19;;;0.60;100.00
64827;BME280;51265;53.972;12.286;2023-02-22T01:58:20;100893.75;;;0.58;100.00
64827;BME280;51265;53.972;12.286;2023-02-22T02:00:46;100898.34;;;0.57;100.00
64827;BME280;51265;53.972;12.286;2023-02-22T02:03:17;100888.94;;;0.60;100.00
64827;BME280;51265;53.972;12.286;2023-02-22T02:05:49;100891.41;;;0.61;100.00
64827;BME280;51265;53.972;12.286;2023-02-22T02:08:58;100881.09;;;0.52;100.00
64827;BME280;51265;53.972;12.286;2023-02-22T02:11:25;100893.44;;;0.47;100.00
64827;BME280;51265;53.972;12.286;2023-02-22T02:13:54;100892.84;;;0.45;100.00
64827;BME280;51265;53.972;12.286;2023-02-22T02:16:26;100893.22;;;0.49;100.00
64827;BME280;51265;53.972;12.286;2023-02-22T02:19:00;100892.84;;;0.45;100.00
64827;BME280;51265;53.972;12.286;2023-02-22T02:27:11;100899.25;;;0.69;100.00
64827;BME280;51265;53.972;12.286;2023-02-22T02:32:32;100890.88;;;0.71;100.00
64827;BME280;51265;53.972;12.286;2023-02-22T02:35:05;100886.59;;;0.45;100.00
64827;BME280;51265;53.972;12.286;2023-02-22T02:42:58;100892.16;;;0.32;100.00
64827;BME280;51265;53.972;12.286;2023-02-22T02:45:37;100892.53;;;0.35;100.00
64827;BME280;51265;53.972;12.286;2023-02-22T02:48:10;100894.63;;;0.33;100.00
64827;BME280;51265;53.972;12.286;2023-02-22T02:50:44;100894.19;;;0.36;100.00
64827;BME280;51265;53.972;12.286;2023-02-22T02:53:12;100889.00;;;0.53;100.00
64827;BME280;51265;53.972;12.286;2023-02-22T02:55:42;100892.72;;;0.59;100.00
64827;BME280;51265;53.972;12.286;2023-02-22T02:58:16;100892.84;;;0.45;100.00
64827;BME280;51265;53.972;12.286;2023-02-22T03:00:43;100890.28;;;0.32;100.00
64827;BME280;51265;53.972;12.286;2023-02-22T03:03:37;100891.94;;;0.52;100.00
64827;BME280;51265;53.972;12.286;2023-02-22T03:06:44;100889.38;;;0.57;100.00
64827;BME280;51265;53.972;12.286;2023-02-22T03:12:10;100878.06;;;0.23;100.00
64827;BME280;51265;53.972;12.286;2023-02-22T03:14:49;100875.00;;;0.38;100.00
64827;BME280;51265;53.972;12.286;2023-02-22T03:17:35;100883.88;;;0.27;100.00
64827;BME280;51265;53.972;12.286;2023-02-22T03:23:10;100881.69;;;0.35;100.00
64827;BME280;51265;53.972;12.286;2023-02-22T03:25:49;100883.78;;;0.33;100.00
64827;BME280;51265;53.972;12.286;2023-02-22T03:28:19;100883.06;;;0.26;100.00
64827;BME280;51265;53.972;12.286;2023-02-22T03:30:52;100879.28;;;0.27;100.00
64827;BME280;51265;53.972;12.286;2023-02-22T03:33:42;100875.66;;;0.15;100.00
64827;BME280;51265;53.972;12.286;2023-02-22T03:36:23;100871.16;;;0.09;100.00
64827;BME280;51265;53.972;12.286;2023-02-22T03:38:54;100873.25;;;0.07;100.00
64827;BME280;51265;53.972;12.286;2023-02-22T03:41:23;100875.34;;;0.05;100.00
64827;BME280;51265;53.972;12.286;2023-02-22T03:43:55;100877.59;;;0.08;100.00
64827;BME280;51265;53.972;12.286;2023-02-22T03:46:24;100875.72;;;0.08;100.00
64827;BME280;51265;53.972;12.286;2023-02-22T03:49:04;100876.19;;;0.05;100.00
64827;BME280;51265;53.972;12.286;2023-02-22T03:51:37;100884.47;;;0.10;100.00
64827;BME280;51265;53.972;12.286;2023-02-22T03:54:05;100876.56;;;0.09;100.00
64827;BME280;51265;53.972;12.286;2023-02-22T03:56:38;100880.59;;;-0.01;100.00
64827;BME280;51265;53.972;12.286;2023-02-22T03:59:12;100885.84;;;-0.06;100.00
64827;BME280;51265;53.972;12.286;2023-02-22T04:01:39;100885.25;;;-0.08;100.00
64827;BME280;51265;53.972;12.286;2023-02-22T04:04:06;100890.06;;;-0.10;100.00
64827;BME280;51265;53.972;12.286;2023-02-22T04:06:32;100893.38;;;-0.08;100.00
64827;BME280;51265;53.972;12.286;2023-02-22T04:09:00;100900.00;;;-0.04;100.00
64827;BME280;51265;53.972;12.286;2023-02-22T04:11:26;100892.81;;;0.09;100.00
64827;BME280;51265;53.972;12.286;2023-02-22T04:13:53;100896.41;;;0.03;100.00
64827;BME280;51265;53.972;12.286;2023-02-22T04:16:21;100889.19;;;-0.04;100.00
64827;BME280;51265;53.972;12.286;2023-02-22T04:18:49;100899.88;;;0.10;100.00
64827;BME280;51265;53.972;12.286;2023-02-22T04:21:18;100900.03;;;0.15;100.00
64827;BME280;51265;53.972;12.286;2023-02-22T04:23:46;100903.19;;;0.12;100.00
64827;BME280;51265;53.972;12.286;2023-02-22T04:26:13;100901.81;;;0.03;100.00
64827;BME280;51265;53.972;12.286;2023-02-22T04:28:39;100899.50;;;0.06;100.00
64827;BME280;51265;53.972;12.286;2023-02-22T04:31:17;100901.91;;;0.14;100.00
64827;BME280;51265;53.972;12.286;2023-02-22T04:33:43;100913.03;;;0.68;100.00
64827;BME280;51265;53.972;12.286;2023-02-22T04:36:13;100914.22;;;0.72;100.00
64827;BME280;51265;53.972;12.286;2023-02-22T04:38:48;100898.72;;;0.42;100.00
64827;BME280;51265;53.972;12.286;2023-02-22T04:41:16;100886.34;;;0.10;100.00
64827;BME280;51265;53.972;12.286;2023-02-22T04:43:42;100899.22;;;-0.11;100.00
64827;BME280;51265;53.972;12.286;2023-02-22T04:46:18;100895.91;;;-0.13;100.00
64827;BME280;51265;53.972;12.286;2023-02-22T04:48:44;100892.75;;;-0.10;100.00
64827;BME280;51265;53.972;12.286;2023-02-22T04:51:12;100888.41;;;-0.11;100.00
64827;BME280;51265;53.972;12.286;2023-02-22T04:53:48;100890.16;;;-0.23;100.00
64827;BME280;51265;53.972;12.286;2023-02-22T04:56:18;100886.53;;;-0.35;100.00
64827;BME280;51265;53.972;12.286;2023-02-22T04:58:45;100888.16;;;-0.34;100.00
64827;BME280;51265;53.972;12.286;2023-02-22T05:01:14;100892.75;;;-0.35;100.00
64827;BME280;51265;53.972;12.286;2023-02-22T05:03:40;100892.44;;;-0.45;100.00
64827;BME280;51265;53.972;12.286;2023-02-22T05:06:06;100892.69;;;-0.53;100.00
64827;BME280;51265;53.972;12.286;2023-02-22T05:08:32;100894.22;;;-0.64;100.00
64827;BME280;51265;53.972;12.286;2023-02-22T05:10:59;100895.97;;;-0.44;100.00
64827;BME280;51265;53.972;12.286;2023-02-22T05:13:25;100888.84;;;-0.39;100.00
64827;BME280;51265;53.972;12.286;2023-02-22T05:15:51;100883.84;;;-0.67;100.00
64827;BME280;51265;53.972;12.286;2023-02-22T05:18:18;100886.81;;;-0.75;100.00
64827;BME280;51265;53.972;12.286;2023-02-22T05:20:44;100899.00;;;-0.34;100.00
64827;BME280;51265;53.972;12.286;2023-02-22T05:23:10;100884.22;;;-0.63;100.00
64827;BME280;51265;53.972;12.286;2023-02-22T05:25:36;100885.41;;;-0.53;100.00
64827;BME280;51265;53.972;12.286;2023-02-22T05:28:08;100886.06;;;-0.57;100.00
64827;BME280;51265;53.972;12.286;2023-02-22T05:30:35;100889.75;;;-0.52;100.00
64827;BME280;51265;53.972;12.286;2023-02-22T05:33:04;100894.59;;;-0.54;100.00
64827;BME280;51265;53.972;12.286;2023-02-22T05:35:31;100895.00;;;-0.57;100.00
64827;BME280;51265;53.972;12.286;2023-02-22T05:37:57;100895.00;;;-0.57;100.00
64827;BME280;51265;53.972;12.286;2023-02-22T05:40:27;100897.09;;;-0.59;100.00
64827;BME280;51265;53.972;12.286;2023-02-22T05:42:54;100907.09;;;-0.59;100.00
64827;BME280;51265;53.972;12.286;2023-02-22T05:45:23;100899.63;;;-0.64;100.00
64827;BME280;51265;53.972;12.286;2023-02-22T05:47:50;100897.97;;;-0.65;100.00
64827;BME280;51265;53.972;12.286;2023-02-22T05:50:17;100902.56;;;-0.65;100.00
64827;BME280;51265;53.972;12.286;2023-02-22T05:52:46;100901.50;;;-0.64;100.00
64827;BME280;51265;53.972;12.286;2023-02-22T05:55:16;100892.81;;;-0.41;100.00
64827;BME280;51265;53.972;12.286;2023-02-22T05:57:42;100898.66;;;-0.44;100.00
64827;BME280;51265;53.972;12.286;2023-02-22T06:00:13;100894.59;;;-0.54;100.00
64827;BME280;51265;53.972;12.286;2023-02-22T06:02:40;100899.59;;;-0.57;100.00
64827;BME280;51265;53.972;12.286;2023-02-22T06:05:06;100900.84;;;-0.60;100.00
64827;BME280;51265;53.972;12.286;2023-02-22T06:07:33;100898.31;;;-0.55;100.00
64827;BME280;51265;53.972;12.286;2023-02-22T06:09:59;100904.94;;;-0.51;100.00
64827;BME280;51265;53.972;12.286;2023-02-22T06:12:25;100904.50;;;-0.47;100.00
64827;BME280;51265;53.972;12.286;2023-02-22T06:14:51;100913.25;;;-0.45;100.00
64827;BME280;51265;53.972;12.286;2023-02-22T06:17:18;100906.94;;;-0.39;100.00
64827;BME280;51265;53.972;12.286;2023-02-22T06:19:44;100903.59;;;-0.35;100.00
64827;BME280;51265;53.972;12.286;2023-02-22T06:22:15;100906.69;;;-0.31;100.00
64827;BME280;51265;53.972;12.286;2023-02-22T06:24:42;100905.03;;;-0.32;100.00
64827;BME280;51265;53.972;12.286;2023-02-22T06:27:08;100906.91;;;-0.33;100.00
64827;BME280;51265;53.972;12.286;2023-02-22T06:29:34;100912.91;;;-0.31;100.00
64827;BME280;51265;53.972;12.286;2023-02-22T06:32:00;100915.13;;;-0.21;100.00
64827;BME280;51265;53.972;12.286;2023-02-22T06:34:26;100922.22;;;-0.20;100.00
64827;BME280;51265;53.972;12.286;2023-02-22T06:36:53;100925.59;;;-0.24;100.00
64827;BME280;51265;53.972;12.286;2023-02-22T06:39:19;100931.22;;;-0.26;100.00
64827;BME280;51265;53.972;12.286;2023-02-22T06:41:46;100932.00;;;-0.19;100.00
64827;BME280;51265;53.972;12.286;2023-02-22T06:44:13;100933.38;;;-0.10;100.00
64827;BME280;51265;53.972;12.286;2023-02-22T06:46:46;100935.75;;;0.05;100.00
64827;BME280;51265;53.972;12.286;2023-02-22T06:49:14;100940.41;;;0.41;100.00
64827;BME280;51265;53.972;12.286;2023-02-22T06:51:40;100947.81;;;0.53;100.00
64827;BME280;51265;53.972;12.286;2023-02-22T06:54:06;100953.84;;;0.73;100.00
64827;BME280;51265;53.972;12.286;2023-02-22T06:56:32;100960.53;;;0.89;100.00
64827;BME280;51265;53.972;12.286;2023-02-22T06:58:58;100959.31;;;1.03;100.00
64827;BME280;51265;53.972;12.286;2023-02-22T07:01:27;100963.16;;;1.14;100.00
64827;BME280;51265;53.972;12.286;2023-02-22T07:03:53;100963.44;;;1.24;100.00
64827;BME280;51265;53.972;12.286;2023-02-22T07:06:20;100965.69;;;1.27;100.00
64827;BME280;51265;53.972;12.286;2023-02-22T07:08:46;100971.50;;;1.31;100.00
64827;BME280;51265;53.972;12.286;2023-02-22T07:11:13;100966.06;;;1.31;100.00
64827;BME280;51265;53.972;12.286;2023-02-22T07:13:39;100960.50;;;1.26;100.00
64827;BME280;51265;53.972;12.286;2023-02-22T07:16:05;100961.09;;;1.28;100.00
64827;BME280;51265;53.972;12.286;2023-02-22T07:18:31;100967.47;;;1.33;100.00
64827;BME280;51265;53.972;12.286;2023-02-22T07:20:57;100968.53;;;1.32;100.00
64827;BME280;51265;53.972;12.286;2023-02-22T07:23:24;100973.06;;;1.38;100.00
64827;BME280;51265;53.972;12.286;2023-02-22T07:25:50;100962.66;;;1.35;100.00
64827;BME280;51265;53.972;12.286;2023-02-22T07:28:16;100964.78;;;1.33;100.00
64827;BME280;51265;53.972;12.286;2023-02-22T07:30:43;100964.06;;;1.26;100.00
64827;BME280;51265;53.972;12.286;2023-02-22T07:33:10;100967.78;;;1.25;100.00
64827;BME280;51265;53.972;12.286;2023-02-22T07:35:45;100969.47;;;1.26;100.00
64827;BME280;51265;53.972;12.286;2023-02-22T07:38:14;100972.09;;;1.33;100.00
64827;BME280;51265;53.972;12.286;2023-02-22T07:40:41;100978.84;;;1.42;100.00
64827;BME280;51265;53.972;12.286;2023-02-22T07:43:22;100978.84;;;1.42;100.00
64827;BME280;51265;53.972;12.286;2023-02-22T07:45:52;100984.63;;;1.64;100.00
64827;BME280;51265;53.972;12.286;2023-02-22T07:48:21;100981.25;;;1.80;100.00
64827;BME280;51265;53.972;12.286;2023-02-22T07:50:48;100988.34;;;1.81;100.00
64827;BME280;51265;53.972;12.286;2023-02-22T07:53:22;100985.41;;;1.94;100.00
64827;BME280;51265;53.972;12.286;2023-02-22T07:55:48;100977.03;;;2.08;100.00
64827;BME280;51265;53.972;12.286;2023-02-22T07:58:18;100982.75;;;2.18;100.00
64827;BME280;51265;53.972;12.286;2023-02-22T08:00:44;100983.34;;;2.32;100.00
64827;BME280;51265;53.972;12.286;2023-02-22T08:03:15;100981.44;;;2.44;100.00
64827;BME280;51265;53.972;12.286;2023-02-22T08:05:44;100989.13;;;2.59;100.00
64827;BME280;51265;53.972;12.286;2023-02-22T08:08:12;100986.38;;;2.82;100.00
64827;BME280;51265;53.972;12.286;2023-02-22T08:10:41;100989.81;;;3.01;100.00
64827;BME280;51265;53.972;12.286;2023-02-22T08:13:08;100987.38;;;3.16;100.00
64827;BME280;51265;53.972;12.286;2023-02-22T08:15:36;100999.34;;;3.56;100.00
64827;BME280;51265;53.972;12.286;2023-02-22T08:18:09;100986.50;;;3.68;100.00
64827;BME280;51265;53.972;12.286;2023-02-22T08:20:37;100980.22;;;3.84;100.00
64827;BME280;51265;53.972;12.286;2023-02-22T08:23:05;100986.03;;;4.05;100.00
64827;BME280;51265;53.972;12.286;2023-02-22T08:25:31;100974.31;;;4.21;100.00
64827;BME280;51265;53.972;12.286;2023-02-22T08:28:03;100976.56;;;4.24;100.00
64827;BME280;51265;53.972;12.286;2023-02-22T08:30:30;100962.59;;;4.37;100.00
64827;BME280;51265;53.972;12.286;2023-02-22T08:32:57;100962.88;;;4.58;100.00
64827;BME280;51265;53.972;12.286;2023-02-22T08:35:24;100962.03;;;4.74;100.00
64827;BME280;51265;53.972;12.286;2023-02-22T08:37:57;100950.75;;;4.87;100.00
64827;BME280;51265;53.972;12.286;2023-02-22T08:40:25;100946.31;;;5.03;100.00
64827;BME280;51265;53.972;12.286;2023-02-22T08:42:53;100944.44;;;5.31;100.00
64827;BME280;51265;53.972;12.286;2023-02-22T08:45:19;100925.91;;;5.33;100.00
64827;BME280;51265;53.972;12.286;2023-02-22T08:47:45;100914.47;;;5.36;100.00
64827;BME280;51265;53.972;12.286;2023-02-22T08:50:22;100903.94;;;5.49;100.00
64827;BME280;51265;53.972;12.286;2023-02-22T08:52:50;100893.66;;;5.57;100.00
64827;BME280;51265;53.972;12.286;2023-02-22T08:55:21;100888.72;;;5.59;100.00
64827;BME280;51265;53.972;12.286;2023-02-22T08:57:48;100882.28;;;5.70;100.00
64827;BME280;51265;53.972;12.286;2023-02-22T09:00:17;100871.97;;;5.77;100.00
64827;BME280;51265;53.972;12.286;2023-02-22T09:02:43;100874.84;;;5.92;100.00
64827;BME280;51265;53.972;12.286;2023-02-22T09:05:09;100873.84;;;6.04;100.00
64827;BME280;51265;53.972;12.286;2023-02-22T09:07:35;100878.53;;;6.13;100.00
64827;BME280;51265;53.972;12.286;2023-02-22T09:10:02;100862.94;;;6.09;100.00
64827;BME280;51265;53.972;12.286;2023-02-22T09:12:28;100862.22;;;6.23;100.00
64827;BME280;51265;53.972;12.286;2023-02-22T09:14:54;100854.34;;;6.37;100.00
64827;BME280;51265;53.972;12.286;2023-02-22T09:17:20;100860.47;;;6.60;100.00
64827;BME280;51265;53.972;12.286;2023-02-22T09:19:46;100855.66;;;6.82;100.00
64827;BME280;51265;53.972;12.286;2023-02-22T09:22:12;100862.38;;;7.37;100.00
64827;BME280;51265;53.972;12.286;2023-02-22T09:24:38;100837.72;;;7.42;100.00
64827;BME280;51265;53.972;12.286;2023-02-22T09:27:05;100836.38;;;7.45;100.00
64827;BME280;51265;53.972;12.286;2023-02-22T09:29:32;100833.09;;;7.73;100.00
64827;BME280;51265;53.972;12.286;2023-02-22T09:31:58;100830.84;;;8.01;100.00
64827;BME280;51265;53.972;12.286;2023-02-22T09:34:24;100810.25;;;8.14;100.00
64827;BME280;51265;53.972;12.286;2023-02-22T09:36:57;100802.00;;;8.29;100.00
64827;BME280;51265;53.972;12.286;2023-02-22T09:39:23;100803.88;;;8.49;100.00
64827;BME280;51265;53.972;12.286;2023-02-22T09:41:57;100779.38;;;8.63;100.00
64827;BME280;51265;53.972;12.286;2023-02-22T09:44:51;100765.50;;;8.88;100.00
64827;BME280;51265;53.972;12.286;2023-02-22T09:47:36;100737.97;;;8.98;100.00
64827;BME280;51265;53.972;12.286;2023-02-22T09:52:34;100702.69;;;9.16;100.00
64827;BME280;51265;53.972;12.286;2023-02-22T09:55:07;100691.41;;;9.17;100.00
64827;BME280;51265;53.972;12.286;2023-02-22T09:57:36;100681.22;;;9.18;100.00
64827;BME280;51265;53.972;12.286;2023-02-22T10:00:13;100669.16;;;9.14;100.00
64827;BME280;51265;53.972;12.286;2023-02-22T10:03:23;100680.28;;;9.33;100.00
64827;BME280;51265;53.972;12.286;2023-02-22T10:06:14;100666.72;;;9.41;100.00
64827;BME280;51265;53.972;12.286;2023-02-22T10:08:42;100665.03;;;9.45;100.00
64827;BME280;51265;53.972;12.286;2023-02-22T10:16:48;100632.28;;;9.73;100.00
64827;BME280;51265;53.972;12.286;2023-02-22T10:24:57;100557.97;;;9.97;100.00
64827;BME280;51265;53.972;12.286;2023-02-22T10:27:39;100522.53;;;9.53;100.00
64827;BME280;51265;53.972;12.286;2023-02-22T10:30:15;100534.56;;;9.57;100.00
64827;BME280;51265;53.972;12.286;2023-02-22T10:32:46;100563.84;;;9.90;100.00
64827;BME280;51265;53.972;12.286;2023-02-22T10:35:24;100539.47;;;10.03;99.43
64827;BME280;51265;53.972;12.286;2023-02-22T10:37:55;100526.06;;;10.15;98.60
64827;BME280;51265;53.972;12.286;2023-02-22T10:40:24;100527.50;;;10.31;98.18
64827;BME280;51265;53.972;12.286;2023-02-22T10:43:00;100503.41;;;10.42;96.86
64827;BME280;51265;53.972;12.286;2023-02-22T10:45:29;100504.38;;;10.65;96.37
64827;BME280;51265;53.972;12.286;2023-02-22T10:48:19;100445.50;;;10.28;94.67
64827;BME280;51265;53.972;12.286;2023-02-22T10:50:46;100465.69;;;10.56;94.50
64827;BME280;51265;53.972;12.286;2023-02-22T10:53:14;100452.34;;;10.50;94.08
64827;BME280;51265;53.972;12.286;2023-02-22T10:59:01;100422.31;;;10.34;94.07
64827;BME280;51265;53.972;12.286;2023-02-22T11:04:21;100437.16;;;10.01;95.64
64827;BME280;51265;53.972;12.286;2023-02-22T11:09:26;100424.28;;;9.77;96.65
64827;BME280;51265;53.972;12.286;2023-02-22T11:12:14;100461.31;;;9.85;98.02
64827;BME280;51265;53.972;12.286;2023-02-22T11:14:41;100452.75;;;10.05;97.81
64827;BME280;51265;53.972;12.286;2023-02-22T11:17:08;100470.50;;;10.32;97.91
64827;BME280;51265;53.972;12.286;2023-02-22T11:19:45;100432.28;;;10.11;97.53
64827;BME280;51265;53.972;12.286;2023-02-22T11:22:52;100439.13;;;10.14;97.56
64827;BME280;51265;53.972;12.286;2023-02-22T11:25:18;100458.41;;;10.33;98.34
64827;BME280;51265;53.972;12.286;2023-02-22T11:27:45;100444.44;;;10.43;97.64
64827;BME280;51265;53.972;12.286;2023-02-22T11:33:40;100436.16;;;10.76;97.15
64827;BME280;51265;53.972;12.286;2023-02-22T11:35:51;100413.63;;;10.87;96.33
64827;BME280;51265;53.972;12.286;2023-02-22T11:38:52;100423.41;;;10.93;96.77
64827;BME280;51265;53.972;12.286;2023-02-22T11:41:27;100389.75;;;10.83;95.27
64827;BME280;51265;53.972;12.286;2023-02-22T11:44:20;100379.34;;;10.66;96.26
64827;BME280;51265;53.972;12.286;2023-02-22T11:46:47;100381.56;;;10.64;95.83
64827;BME280;51265;53.972;12.286;2023-02-22T11:49:13;100370.75;;;10.54;96.31
64827;BME280;51265;53.972;12.286;2023-02-22T12:03:31;100338.13;;;10.75;95.57
64827;BME280;51265;53.972;12.286;2023-02-22T12:09:24;100343.81;;;10.92;95.97
64827;BME280;51265;53.972;12.286;2023-02-22T12:17:38;100335.00;;;11.17;95.49
64827;BME280;51265;53.972;12.286;2023-02-22T12:20:17;100291.53;;;11.01;94.48
64827;BME280;51265;53.972;12.286;2023-02-22T12:31:28;100323.56;;;11.46;94.72
64827;BME280;51265;53.972;12.286;2023-02-22T12:34:14;100277.19;;;11.26;93.06
64827;BME280;51265;53.972;12.286;2023-02-22T12:36:47;100249.69;;;10.98;92.84
64827;BME280;51265;53.972;12.286;2023-02-22T12:39:26;100256.44;;;10.92;93.66
64827;BME280;51265;53.972;12.286;2023-02-22T12:41:57;100268.97;;;10.62;95.36
64827;BME280;51265;53.972;12.286;2023-02-22T12:44:32;100281.41;;;10.46;95.99
64827;BME280;51265;53.972;12.286;2023-02-22T12:47:00;100274.25;;;10.31;96.18
64827;BME280;51265;53.972;12.286;2023-02-22T12:49:33;100296.38;;;10.26;97.69
64827;BME280;51265;53.972;12.286;2023-02-22T13:00:27;100327.09;;;10.01;100.00
64827;BME280;51265;53.972;12.286;2023-02-22T13:03:25;100320.47;;;10.02;100.00
64827;BME280;51265;53.972;12.286;2023-02-22T13:06:24;100312.53;;;10.14;100.00
64827;BME280;51265;53.972;12.286;2023-02-22T13:09:22;100274.22;;;10.04;98.70
64827;BME280;51265;53.972;12.286;2023-02-22T13:14:57;100261.97;;;10.10;97.61
64827;BME280;51265;53.972;12.286;2023-02-22T13:17:43;100268.06;;;10.26;97.36
64827;BME280;51265;53.972;12.286;2023-02-22T13:20:22;100260.59;;;10.26;97.14
64827;BME280;51265;53.972;12.286;2023-02-22T13:26:05;100224.38;;;10.19;96.50
64827;BME280;51265;53.972;12.286;2023-02-22T13:37:22;100210.75;;;10.41;95.65
64827;BME280;51265;53.972;12.286;2023-02-22T13:40:29;100205.53;;;10.12;96.51
64827;BME280;51265;53.972;12.286;2023-02-22T13:46:11;100192.88;;;9.70;97.67
64827;BME280;51265;53.972;12.286;2023-02-22T13:52:28;100230.34;;;9.66;99.40
64827;BME280;51265;53.972;12.286;2023-02-22T13:55:01;100242.88;;;9.72;100.00
64827;BME280;51265;53.972;12.286;2023-02-22T13:57:35;100275.41;;;9.97;100.00
64827;BME280;51265;53.972;12.286;2023-02-22T14:03:16;100226.47;;;9.67;100.00
64827;BME280;51265;53.972;12.286;2023-02-22T14:05:53;100238.06;;;9.64;100.00
64827;BME280;51265;53.972;12.286;2023-02-22T14:11:38;100274.28;;;9.98;100.00
64827;BME280;51265;53.972;12.286;2023-02-22T14:16:30;100227.75;;;9.23;100.00
64827;BME280;51265;53.972;12.286;2023-02-22T14:19:10;100253.88;;;9.39;100.00
64827;BME280;51265;53.972;12.286;2023-02-22T14:24:22;100260.25;;;9.54;100.00
64827;BME280;51265;53.972;12.286;2023-02-22T14:26:55;100239.78;;;9.27;100.00
64827;BME280;51265;53.972;12.286;2023-02-22T14:29:22;100235.88;;;8.95;100.00
64827;BME280;51265;53.972;12.286;2023-02-22T14:34:40;100290.00;;;8.52;100.00
64827;BME280;51265;53.972;12.286;2023-02-22T14:37:13;100295.13;;;8.35;100.00
64827;BME280;51265;53.972;12.286;2023-02-22T14:39:45;100297.69;;;8.26;100.00
64827;BME280;51265;53.972;12.286;2023-02-22T14:42:21;100306.78;;;8.21;100.00
64827;BME280;51265;53.972;12.286;2023-02-22T14:53:06;100329.66;;;8.12;100.00
64827;BME280;51265;53.972;12.286;2023-02-22T14:55:46;100323.56;;;7.91;100.00
64827;BME280;51265;53.972;12.286;2023-02-22T14:58:17;100326.13;;;7.77;100.00
64827;BME280;51265;53.972;12.286;2023-02-22T15:00:48;100346.31;;;7.91;100.00
64827;BME280;51265;53.972;12.286;2023-02-22T15:03:24;100336.41;;;7.95;100.00
64827;BME280;51265;53.972;12.286;2023-02-22T15:05:52;100324.13;;;7.88;100.00
64827;BME280;51265;53.972;12.286;2023-02-22T15:08:18;100336.41;;;7.95;100.00